sensor_id;sensor_type;location;lat;lon;timestamp;temperature;humidity
31639;DHT22;18248;51.522;7.020;2024-01-16T00:01:16;2.80;99.90
31639;DHT22;18248;51.522;7.020;2024-01-16T00:04:16;2.80;99.90
31639;DHT22;18248;51.522;7.020;2024-01-16T00:07:14;2.80;99.90
31639;DHT22;18248;51.522;7.020;2024-01-16T00:10:13;2.70;99.90
31639;DHT22;18248;51.522;7.020;2024-01-16T00:13:12;2.80;99.90
31639;DHT22;18248;51.522;7.020;2024-01-16T00:16:11;2.80;99.90
31639;DHT22;18248;51.522;7.020;2024-01-16T00:19:10;2.70;99.90
31639;DHT22;18248;51.522;7.020;2024-01-16T00:22:09;2.70;99.90
31639;DHT22;18248;51.522;7.020;2024-01-16T00:25:07;2.70;99.90
31639;DHT22;18248;51.522;7.020;2024-01-16T00:28:06;2.70;99.90
31639;DHT22;18248;51.522;7.020;2024-01-16T00:31:07;2.70;99.90
31639;DHT22;18248;51.522;7.020;2024-01-16T00:34:06;2.70;99.90
31639;DHT22;18248;51.522;7.020;2024-01-16T00:37:05;2.70;99.90
31639;DHT22;18248;51.522;7.020;2024-01-16T00:40:04;2.70;99.90
31639;DHT22;18248;51.522;7.020;2024-01-16T00:43:03;2.70;99.90
31639;DHT22;18248;51.522;7.020;2024-01-16T00:46:01;2.70;99.90
31639;DHT22;18248;51.522;7.020;2024-01-16T00:49:00;2.70;99.90
31639;DHT22;18248;51.522;7.020;2024-01-16T00:51:58;2.70;99.90
31639;DHT22;18248;51.522;7.020;2024-01-16T00:54:57;2.70;99.90
31639;DHT22;18248;51.522;7.020;2024-01-16T00:57:55;2.70;99.90
31639;DHT22;18248;51.522;7.020;2024-01-16T01:00:54;2.70;99.90
31639;DHT22;18248;51.522;7.020;2024-01-16T01:03:52;2.70;99.90
31639;DHT22;18248;51.522;7.020;2024-01-16T01:06:51;2.70;99.90
31639;DHT22;18248;51.522;7.020;2024-01-16T01:09:50;2.70;99.90
31639;DHT22;18248;51.522;7.020;2024-01-16T01:12:49;2.70;99.90
31639;DHT22;18248;51.522;7.020;2024-01-16T01:15:47;2.70;99.90
31639;DHT22;18248;51.522;7.020;2024-01-16T01:18:46;2.70;99.90
31639;DHT22;18248;51.522;7.020;2024-01-16T01:21:44;2.70;99.90
31639;DHT22;18248;51.522;7.020;2024-01-16T01:24:43;2.70;99.90
31639;DHT22;18248;51.522;7.020;2024-01-16T01:27:41;2.70;99.90
31639;DHT22;18248;51.522;7.020;2024-01-16T01:30:40;2.70;99.90
31639;DHT22;18248;51.522;7.020;2024-01-16T01:33:41;2.70;99.90
31639;DHT22;18248;51.522;7.020;2024-01-16T01:36:40;2.70;99.90
31639;DHT22;18248;51.522;7.020;2024-01-16T01:39:39;2.70;99.90
31639;DHT22;18248;51.522;7.020;2024-01-16T01:42:40;2.70;99.90
31639;DHT22;18248;51.522;7.020;2024-01-16T01:45:39;2.80;99.90
31639;DHT22;18248;51.522;7.020;2024-01-16T01:48:41;2.70;99.90
31639;DHT22;18248;51.522;7.020;2024-01-16T01:51:40;2.80;99.90
31639;DHT22;18248;51.522;7.020;2024-01-16T01:54:40;2.70;99.90
31639;DHT22;18248;51.522;7.020;2024-01-16T01:57:40;2.70;99.90
31639;DHT22;18248;51.522;7.020;2024-01-16T02:00:38;2.70;99.90
31639;DHT22;18248;51.522;7.020;2024-01-16T02:03:45;2.70;99.90
31639;DHT22;18248;51.522;7.020;2024-01-16T02:06:44;2.70;99.90
31639;DHT22;18248;51.522;7.020;2024-01-16T02:09:43;2.70;99.90
31639;DHT22;18248;51.522;7.020;2024-01-16T02:12:42;2.70;99.90
31639;DHT22;18248;51.522;7.020;2024-01-16T02:15:40;2.70;99.90
31639;DHT22;18248;51.522;7.020;2024-01-16T02:18:39;2.70;99.90
31639;DHT22;18248;51.522;7.020;2024-01-16T02:21:49;2.70;99.90
31639;DHT22;18248;51.522;7.020;2024-01-16T02:24:48;2.70;99.90
31639;DHT22;18248;51.522;7.020;2024-01-16T02:27:47;2.60;99.90
31639;DHT22;18248;51.522;7.020;2024-01-16T02:30:45;2.60;99.90
31639;DHT22;18248;51.522;7.020;2024-01-16T02:33:44;2.60;99.90
31639;DHT22;18248;51.522;7.020;2024-01-16T02:36:43;2.60;99.90
31639;DHT22;18248;51.522;7.020;2024-01-16T02:39:41;2.60;99.90
31639;DHT22;18248;51.522;7.020;2024-01-16T02:42:40;2.60;99.90
31639;DHT22;18248;51.522;7.020;2024-01-16T02:45:39;2.60;99.90
31639;DHT22;18248;51.522;7.020;2024-01-16T02:48:37;2.60;99.90
31639;DHT22;18248;51.522;7.020;2024-01-16T02:51:36;2.60;99.90
31639;DHT22;18248;51.522;7.020;2024-01-16T02:54:34;2.50;99.90
31639;DHT22;18248;51.522;7.020;2024-01-16T02:57:33;2.50;99.90
31639;DHT22;18248;51.522;7.020;2024-01-16T03:00:32;2.50;99.90
31639;DHT22;18248;51.522;7.020;2024-01-16T03:03:30;2.50;99.90
31639;DHT22;18248;51.522;7.020;2024-01-16T03:06:29;2.50;99.90
31639;DHT22;18248;51.522;7.020;2024-01-16T03:09:29;2.50;99.90
31639;DHT22;18248;51.522;7.020;2024-01-16T03:12:27;2.60;99.90
31639;DHT22;18248;51.522;7.020;2024-01-16T03:15:26;2.60;99.90
31639;DHT22;18248;51.522;7.020;2024-01-16T03:18:24;2.50;99.90
31639;DHT22;18248;51.522;7.020;2024-01-16T03:21:23;2.60;99.90
31639;DHT22;18248;51.522;7.020;2024-01-16T03:24:21;2.60;99.90
31639;DHT22;18248;51.522;7.020;2024-01-16T03:27:20;2.60;99.90
31639;DHT22;18248;51.522;7.020;2024-01-16T03:30:18;2.60;99.90
31639;DHT22;18248;51.522;7.020;2024-01-16T03:33:17;2.60;99.90
31639;DHT22;18248;51.522;7.020;2024-01-16T03:36:16;2.60;99.90
31639;DHT22;18248;51.522;7.020;2024-01-16T03:39:15;2.70;99.90
31639;DHT22;18248;51.522;7.020;2024-01-16T03:42:13;2.70;99.90
31639;DHT22;18248;51.522;7.020;2024-01-16T03:45:12;2.60;99.90
31639;DHT22;18248;51.522;7.020;2024-01-16T03:48:11;2.60;99.90
31639;DHT22;18248;51.522;7.020;2024-01-16T03:51:10;2.60;99.90
31639;DHT22;18248;51.522;7.020;2024-01-16T03:54:08;2.70;99.90
31639;DHT22;18248;51.522;7.020;2024-01-16T03:57:07;2.60;99.90
31639;DHT22;18248;51.522;7.020;2024-01-16T04:00:06;2.60;99.90
31639;DHT22;18248;51.522;7.020;2024-01-16T04:03:05;2.70;99.90
31639;DHT22;18248;51.522;7.020;2024-01-16T04:06:18;2.70;99.90
31639;DHT22;18248;51.522;7.020;2024-01-16T04:09:16;2.70;99.90
31639;DHT22;18248;51.522;7.020;2024-01-16T04:12:15;2.70;99.90
31639;DHT22;18248;51.522;7.020;2024-01-16T04:15:13;2.70;99.90
31639;DHT22;18248;51.522;7.020;2024-01-16T04:18:12;2.70;99.90
31639;DHT22;18248;51.522;7.020;2024-01-16T04:21:10;2.70;99.90
31639;DHT22;18248;51.522;7.020;2024-01-16T04:24:09;2.70;99.90
31639;DHT22;18248;51.522;7.020;2024-01-16T04:27:07;2.70;99.90
31639;DHT22;18248;51.522;7.020;2024-01-16T04:30:08;2.70;99.90
31639;DHT22;18248;51.522;7.020;2024-01-16T04:33:07;2.70;99.90
31639;DHT22;18248;51.522;7.020;2024-01-16T04:36:06;2.70;99.90
31639;DHT22;18248;51.522;7.020;2024-01-16T04:39:05;2.80;99.90
31639;DHT22;18248;51.522;7.020;2024-01-16T04:42:04;2.80;99.90
31639;DHT22;18248;51.522;7.020;2024-01-16T04:45:02;2.80;99.90
31639;DHT22;18248;51.522;7.020;2024-01-16T04:48:01;2.80;99.90
31639;DHT22;18248;51.522;7.020;2024-01-16T04:50:59;2.80;99.90
31639;DHT22;18248;51.522;7.020;2024-01-16T04:53:58;2.80;99.90
31639;DHT22;18248;51.522;7.020;2024-01-16T04:56:56;2.80;99.90
31639;DHT22;18248;51.522;7.020;2024-01-16T04:59:55;2.80;99.90
31639;DHT22;18248;51.522;7.020;2024-01-16T05:02:54;2.80;99.90
31639;DHT22;18248;51.522;7.020;2024-01-16T05:05:52;2.80;99.90
31639;DHT22;18248;51.522;7.020;2024-01-16T05:08:51;2.80;99.90
31639;DHT22;18248;51.522;7.020;2024-01-16T05:11:50;2.80;99.90
31639;DHT22;18248;51.522;7.020;2024-01-16T05:14:48;2.90;99.90
31639;DHT22;18248;51.522;7.020;2024-01-16T05:17:47;2.90;99.90
31639;DHT22;18248;51.522;7.020;2024-01-16T05:20:45;2.90;99.90
31639;DHT22;18248;51.522;7.020;2024-01-16T05:23:44;2.90;99.90
31639;DHT22;18248;51.522;7.020;2024-01-16T05:26:42;2.90;99.90
31639;DHT22;18248;51.522;7.020;2024-01-16T05:29:41;2.90;99.90
31639;DHT22;18248;51.522;7.020;2024-01-16T05:32:39;2.80;99.90
31639;DHT22;18248;51.522;7.020;2024-01-16T05:35:39;2.80;99.90
31639;DHT22;18248;51.522;7.020;2024-01-16T05:38:38;2.80;99.90
31639;DHT22;18248;51.522;7.020;2024-01-16T05:41:37;2.80;99.90
31639;DHT22;18248;51.522;7.020;2024-01-16T05:44:36;2.70;99.90
31639;DHT22;18248;51.522;7.020;2024-01-16T05:47:34;2.70;99.90
31639;DHT22;18248;51.522;7.020;2024-01-16T05:50:34;2.70;99.90
31639;DHT22;18248;51.522;7.020;2024-01-16T05:53:33;2.70;99.90
31639;DHT22;18248;51.522;7.020;2024-01-16T05:56:31;2.70;99.90
31639;DHT22;18248;51.522;7.020;2024-01-16T05:59:30;2.70;99.90
31639;DHT22;18248;51.522;7.020;2024-01-16T06:02:29;2.70;99.90
31639;DHT22;18248;51.522;7.020;2024-01-16T06:05:27;2.70;99.90
31639;DHT22;18248;51.522;7.020;2024-01-16T06:08:26;2.70;99.90
31639;DHT22;18248;51.522;7.020;2024-01-16T06:11:30;2.70;99.90
31639;DHT22;18248;51.522;7.020;2024-01-16T06:14:29;2.70;99.90
31639;DHT22;18248;51.522;7.020;2024-01-16T06:17:27;2.60;99.90
31639;DHT22;18248;51.522;7.020;2024-01-16T06:20:26;2.60;99.90
31639;DHT22;18248;51.522;7.020;2024-01-16T06:23:27;2.60;99.90
31639;DHT22;18248;51.522;7.020;2024-01-16T06:26:25;2.60;99.90
31639;DHT22;18248;51.522;7.020;2024-01-16T06:29:24;2.60;99.90
31639;DHT22;18248;51.522;7.020;2024-01-16T06:32:22;2.60;99.90
31639;DHT22;18248;51.522;7.020;2024-01-16T06:35:22;2.60;99.90
31639;DHT22;18248;51.522;7.020;2024-01-16T06:38:21;2.60;99.90
31639;DHT22;18248;51.522;7.020;2024-01-16T06:41:20;2.50;99.90
31639;DHT22;18248;51.522;7.020;2024-01-16T06:44:19;2.50;99.90
31639;DHT22;18248;51.522;7.020;2024-01-16T06:47:17;2.50;99.90
31639;DHT22;18248;51.522;7.020;2024-01-16T06:50:16;2.50;99.90
31639;DHT22;18248;51.522;7.020;2024-01-16T06:53:15;2.50;99.90
31639;DHT22;18248;51.522;7.020;2024-01-16T06:56:13;2.50;99.90
31639;DHT22;18248;51.522;7.020;2024-01-16T06:59:12;2.50;99.90
31639;DHT22;18248;51.522;7.020;2024-01-16T07:02:10;2.50;99.90
31639;DHT22;18248;51.522;7.020;2024-01-16T07:05:12;2.50;99.90
31639;DHT22;18248;51.522;7.020;2024-01-16T07:08:11;2.40;99.90
31639;DHT22;18248;51.522;7.020;2024-01-16T07:11:09;2.40;99.90
31639;DHT22;18248;51.522;7.020;2024-01-16T07:14:11;2.40;99.90
31639;DHT22;18248;51.522;7.020;2024-01-16T07:17:10;2.40;99.90
31639;DHT22;18248;51.522;7.020;2024-01-16T07:20:09;2.40;99.90
31639;DHT22;18248;51.522;7.020;2024-01-16T07:23:07;2.40;99.90
31639;DHT22;18248;51.522;7.020;2024-01-16T07:26:06;2.40;99.90
31639;DHT22;18248;51.522;7.020;2024-01-16T07:29:05;2.50;99.90
31639;DHT22;18248;51.522;7.020;2024-01-16T07:32:04;2.50;99.90
31639;DHT22;18248;51.522;7.020;2024-01-16T07:35:03;2.40;99.90
31639;DHT22;18248;51.522;7.020;2024-01-16T07:38:02;2.40;99.90
31639;DHT22;18248;51.522;7.020;2024-01-16T07:41:01;2.40;99.90
31639;DHT22;18248;51.522;7.020;2024-01-16T07:44:00;2.40;99.90
31639;DHT22;18248;51.522;7.020;2024-01-16T07:46:58;2.40;99.90
31639;DHT22;18248;51.522;7.020;2024-01-16T07:49:57;2.40;99.90
31639;DHT22;18248;51.522;7.020;2024-01-16T07:52:56;2.40;99.90
31639;DHT22;18248;51.522;7.020;2024-01-16T07:55:55;2.40;99.90
31639;DHT22;18248;51.522;7.020;2024-01-16T07:58:53;2.30;99.90
31639;DHT22;18248;51.522;7.020;2024-01-16T08:01:52;2.40;99.90
31639;DHT22;18248;51.522;7.020;2024-01-16T08:04:51;2.30;99.90
31639;DHT22;18248;51.522;7.020;2024-01-16T08:07:50;2.30;99.90
31639;DHT22;18248;51.522;7.020;2024-01-16T08:10:48;2.30;99.90
31639;DHT22;18248;51.522;7.020;2024-01-16T08:13:47;2.30;99.90
31639;DHT22;18248;51.522;7.020;2024-01-16T08:16:46;2.30;99.90
31639;DHT22;18248;51.522;7.020;2024-01-16T08:19:44;2.30;99.90
31639;DHT22;18248;51.522;7.020;2024-01-16T08:22:43;2.30;99.90
31639;DHT22;18248;51.522;7.020;2024-01-16T08:25:41;2.30;99.90
31639;DHT22;18248;51.522;7.020;2024-01-16T08:28:40;2.30;99.90
31639;DHT22;18248;51.522;7.020;2024-01-16T08:31:38;2.30;99.90
31639;DHT22;18248;51.522;7.020;2024-01-16T08:34:37;2.30;99.90
31639;DHT22;18248;51.522;7.020;2024-01-16T08:37:36;2.40;99.90
31639;DHT22;18248;51.522;7.020;2024-01-16T08:40:34;2.40;99.90
31639;DHT22;18248;51.522;7.020;2024-01-16T08:43:35;2.40;99.90
31639;DHT22;18248;51.522;7.020;2024-01-16T08:46:34;2.40;99.90
31639;DHT22;18248;51.522;7.020;2024-01-16T08:49:33;2.40;99.90
31639;DHT22;18248;51.522;7.020;2024-01-16T08:52:32;2.40;99.90
31639;DHT22;18248;51.522;7.020;2024-01-16T08:55:30;2.40;99.90
31639;DHT22;18248;51.522;7.020;2024-01-16T08:58:29;2.40;99.90
31639;DHT22;18248;51.522;7.020;2024-01-16T09:01:27;2.40;99.90
31639;DHT22;18248;51.522;7.020;2024-01-16T09:04:26;2.40;99.90
31639;DHT22;18248;51.522;7.020;2024-01-16T09:07:25;2.40;99.90
31639;DHT22;18248;51.522;7.020;2024-01-16T09:10:23;2.40;99.90
31639;DHT22;18248;51.522;7.020;2024-01-16T09:13:22;2.40;99.90
31639;DHT22;18248;51.522;7.020;2024-01-16T09:16:21;2.40;99.90
31639;DHT22;18248;51.522;7.020;2024-01-16T09:19:20;2.40;99.90
31639;DHT22;18248;51.522;7.020;2024-01-16T09:22:18;2.40;99.90
31639;DHT22;18248;51.522;7.020;2024-01-16T09:25:17;2.50;99.90
31639;DHT22;18248;51.522;7.020;2024-01-16T09:28:15;2.40;99.90
31639;DHT22;18248;51.522;7.020;2024-01-16T09:31:15;2.50;99.90
31639;DHT22;18248;51.522;7.020;2024-01-16T09:34:14;2.50;99.90
31639;DHT22;18248;51.522;7.020;2024-01-16T09:37:13;2.50;99.90
31639;DHT22;18248;51.522;7.020;2024-01-16T09:40:13;2.40;99.90
31639;DHT22;18248;51.522;7.020;2024-01-16T09:43:12;2.50;99.90
31639;DHT22;18248;51.522;7.020;2024-01-16T09:46:11;2.50;99.90
31639;DHT22;18248;51.522;7.020;2024-01-16T09:49:10;2.50;99.90
31639;DHT22;18248;51.522;7.020;2024-01-16T09:52:09;2.50;99.90
31639;DHT22;18248;51.522;7.020;2024-01-16T09:55:07;2.50;99.90
31639;DHT22;18248;51.522;7.020;2024-01-16T09:58:07;2.60;99.90
31639;DHT22;18248;51.522;7.020;2024-01-16T10:01:07;2.60;99.90
31639;DHT22;18248;51.522;7.020;2024-01-16T10:04:06;2.60;99.90
31639;DHT22;18248;51.522;7.020;2024-01-16T10:07:05;2.70;99.90
31639;DHT22;18248;51.522;7.020;2024-01-16T10:10:05;2.70;99.90
31639;DHT22;18248;51.522;7.020;2024-01-16T10:13:04;2.70;99.90
31639;DHT22;18248;51.522;7.020;2024-01-16T10:16:03;2.70;99.90
31639;DHT22;18248;51.522;7.020;2024-01-16T10:19:05;2.80;99.90
31639;DHT22;18248;51.522;7.020;2024-01-16T10:22:06;2.80;99.90
31639;DHT22;18248;51.522;7.020;2024-01-16T10:28:08;2.90;99.90
31639;DHT22;18248;51.522;7.020;2024-01-16T10:31:11;2.90;99.90
31639;DHT22;18248;51.522;7.020;2024-01-16T10:34:19;3.00;99.90
31639;DHT22;18248;51.522;7.020;2024-01-16T10:37:19;3.00;99.90
31639;DHT22;18248;51.522;7.020;2024-01-16T10:40:20;3.10;99.90
31639;DHT22;18248;51.522;7.020;2024-01-16T10:43:19;3.10;99.90
31639;DHT22;18248;51.522;7.020;2024-01-16T10:46:17;3.20;99.90
31639;DHT22;18248;51.522;7.020;2024-01-16T10:49:16;3.20;99.90
31639;DHT22;18248;51.522;7.020;2024-01-16T10:52:17;3.30;99.90
31639;DHT22;18248;51.522;7.020;2024-01-16T10:55:24;3.30;99.90
31639;DHT22;18248;51.522;7.020;2024-01-16T10:58:23;3.40;99.90
31639;DHT22;18248;51.522;7.020;2024-01-16T11:01:24;3.50;99.90
31639;DHT22;18248;51.522;7.020;2024-01-16T11:04:24;3.50;99.90
31639;DHT22;18248;51.522;7.020;2024-01-16T11:07:23;3.50;99.90
31639;DHT22;18248;51.522;7.020;2024-01-16T11:10:23;3.50;99.90
31639;DHT22;18248;51.522;7.020;2024-01-16T11:13:23;3.50;99.90
31639;DHT22;18248;51.522;7.020;2024-01-16T11:16:23;3.50;99.90
31639;DHT22;18248;51.522;7.020;2024-01-16T11:19:22;3.50;99.90
31639;DHT22;18248;51.522;7.020;2024-01-16T11:22:21;3.50;99.90
31639;DHT22;18248;51.522;7.020;2024-01-16T11:25:20;3.50;99.90
31639;DHT22;18248;51.522;7.020;2024-01-16T11:28:19;3.50;99.90
31639;DHT22;18248;51.522;7.020;2024-01-16T11:31:32;3.50;99.90
31639;DHT22;18248;51.522;7.020;2024-01-16T11:37:47;3.40;99.90
31639;DHT22;18248;51.522;7.020;2024-01-16T11:40:47;3.50;99.90
31639;DHT22;18248;51.522;7.020;2024-01-16T11:43:46;3.50;99.90
31639;DHT22;18248;51.522;7.020;2024-01-16T11:47:00;3.70;99.90
31639;DHT22;18248;51.522;7.020;2024-01-16T11:50:29;3.80;99.90
31639;DHT22;18248;51.522;7.020;2024-01-16T11:53:38;3.90;99.90
31639;DHT22;18248;51.522;7.020;2024-01-16T12:00:27;4.10;99.90
31639;DHT22;18248;51.522;7.020;2024-01-16T12:03:27;4.30;99.90
31639;DHT22;18248;51.522;7.020;2024-01-16T12:06:25;4.40;99.90
31639;DHT22;18248;51.522;7.020;2024-01-16T12:09:28;4.50;99.90
31639;DHT22;18248;51.522;7.020;2024-01-16T12:12:27;4.60;99.90
31639;DHT22;18248;51.522;7.020;2024-01-16T12:15:26;4.60;99.90
31639;DHT22;18248;51.522;7.020;2024-01-16T12:18:24;4.70;99.90
31639;DHT22;18248;51.522;7.020;2024-01-16T12:21:23;4.70;99.90
31639;DHT22;18248;51.522;7.020;2024-01-16T12:24:22;4.80;99.90
31639;DHT22;18248;51.522;7.020;2024-01-16T12:27:20;4.80;99.90
31639;DHT22;18248;51.522;7.020;2024-01-16T12:30:19;4.80;99.90
31639;DHT22;18248;51.522;7.020;2024-01-16T12:33:21;4.80;99.90
31639;DHT22;18248;51.522;7.020;2024-01-16T12:36:20;4.90;99.90
31639;DHT22;18248;51.522;7.020;2024-01-16T12:39:19;4.90;99.90
31639;DHT22;18248;51.522;7.020;2024-01-16T12:42:18;4.90;99.90
31639;DHT22;18248;51.522;7.020;2024-01-16T12:45:17;4.90;99.90
31639;DHT22;18248;51.522;7.020;2024-01-16T12:48:23;4.90;99.90
31639;DHT22;18248;51.522;7.020;2024-01-16T12:51:22;5.00;99.90
31639;DHT22;18248;51.522;7.020;2024-01-16T12:54:21;4.90;99.90
31639;DHT22;18248;51.522;7.020;2024-01-16T12:57:21;4.80;99.90
31639;DHT22;18248;51.522;7.020;2024-01-16T13:00:24;4.80;99.90
31639;DHT22;18248;51.522;7.020;2024-01-16T13:03:26;4.80;99.90
31639;DHT22;18248;51.522;7.020;2024-01-16T13:06:25;4.90;99.90
31639;DHT22;18248;51.522;7.020;2024-01-16T13:09:23;4.80;99.90
31639;DHT22;18248;51.522;7.020;2024-01-16T13:12:22;4.70;99.90
31639;DHT22;18248;51.522;7.020;2024-01-16T13:15:20;4.60;99.90
31639;DHT22;18248;51.522;7.020;2024-01-16T13:18:24;4.50;99.90
31639;DHT22;18248;51.522;7.020;2024-01-16T13:21:23;4.50;99.90
31639;DHT22;18248;51.522;7.020;2024-01-16T13:24:23;4.40;99.90
31639;DHT22;18248;51.522;7.020;2024-01-16T13:27:22;4.40;99.90
31639;DHT22;18248;51.522;7.020;2024-01-16T13:30:20;4.40;99.90
31639;DHT22;18248;51.522;7.020;2024-01-16T13:33:19;4.40;99.90
31639;DHT22;18248;51.522;7.020;2024-01-16T13:36:18;4.40;99.90
31639;DHT22;18248;51.522;7.020;2024-01-16T13:39:16;4.50;99.90
31639;DHT22;18248;51.522;7.020;2024-01-16T13:42:15;4.50;99.90
31639;DHT22;18248;51.522;7.020;2024-01-16T13:45:16;4.50;99.90
31639;DHT22;18248;51.522;7.020;2024-01-16T13:48:16;4.40;99.90
31639;DHT22;18248;51.522;7.020;2024-01-16T13:51:16;4.40;99.90
31639;DHT22;18248;51.522;7.020;2024-01-16T13:54:14;4.30;99.90
31639;DHT22;18248;51.522;7.020;2024-01-16T13:57:13;4.30;99.90
31639;DHT22;18248;51.522;7.020;2024-01-16T14:00:13;4.40;99.90
31639;DHT22;18248;51.522;7.020;2024-01-16T14:03:13;4.30;99.90
31639;DHT22;18248;51.522;7.020;2024-01-16T14:06:12;4.40;99.90
31639;DHT22;18248;51.522;7.020;2024-01-16T14:09:11;4.40;99.90
31639;DHT22;18248;51.522;7.020;2024-01-16T14:12:12;4.30;99.90
31639;DHT22;18248;51.522;7.020;2024-01-16T14:15:15;4.20;99.90
31639;DHT22;18248;51.522;7.020;2024-01-16T14:18:14;4.10;99.90
31639;DHT22;18248;51.522;7.020;2024-01-16T14:21:13;4.10;99.90
31639;DHT22;18248;51.522;7.020;2024-01-16T14:24:11;3.90;99.90
31639;DHT22;18248;51.522;7.020;2024-01-16T14:27:10;3.90;99.90
31639;DHT22;18248;51.522;7.020;2024-01-16T14:30:13;3.80;99.90
31639;DHT22;18248;51.522;7.020;2024-01-16T14:33:12;3.90;99.90
31639;DHT22;18248;51.522;7.020;2024-01-16T14:36:11;3.90;99.90
31639;DHT22;18248;51.522;7.020;2024-01-16T14:39:09;3.90;99.90
31639;DHT22;18248;51.522;7.020;2024-01-16T14:42:11;4.00;99.90
31639;DHT22;18248;51.522;7.020;2024-01-16T14:45:11;3.90;99.90
31639;DHT22;18248;51.522;7.020;2024-01-16T14:48:12;3.90;99.90
31639;DHT22;18248;51.522;7.020;2024-01-16T14:51:12;3.90;99.90
31639;DHT22;18248;51.522;7.020;2024-01-16T14:54:10;3.90;99.90
31639;DHT22;18248;51.522;7.020;2024-01-16T14:57:09;3.90;99.90
31639;DHT22;18248;51.522;7.020;2024-01-16T15:00:11;3.80;99.90
31639;DHT22;18248;51.522;7.020;2024-01-16T15:03:22;3.80;99.90
31639;DHT22;18248;51.522;7.020;2024-01-16T15:06:21;3.80;99.90
31639;DHT22;18248;51.522;7.020;2024-01-16T15:09:20;3.80;99.90
31639;DHT22;18248;51.522;7.020;2024-01-16T15:12:19;3.70;99.90
31639;DHT22;18248;51.522;7.020;2024-01-16T15:15:19;3.70;99.90
31639;DHT22;18248;51.522;7.020;2024-01-16T15:18:17;3.70;99.90
31639;DHT22;18248;51.522;7.020;2024-01-16T15:21:16;3.80;99.90
31639;DHT22;18248;51.522;7.020;2024-01-16T15:24:16;3.80;99.90
31639;DHT22;18248;51.522;7.020;2024-01-16T15:27:20;3.80;99.90
31639;DHT22;18248;51.522;7.020;2024-01-16T15:30:20;3.70;99.90
31639;DHT22;18248;51.522;7.020;2024-01-16T15:33:29;3.80;99.90
31639;DHT22;18248;51.522;7.020;2024-01-16T15:36:28;3.70;99.90
31639;DHT22;18248;51.522;7.020;2024-01-16T15:39:26;3.70;99.90
31639;DHT22;18248;51.522;7.020;2024-01-16T15:42:26;3.70;99.90
31639;DHT22;18248;51.522;7.020;2024-01-16T15:45:25;3.60;99.90
31639;DHT22;18248;51.522;7.020;2024-01-16T15:48:24;3.50;99.90
31639;DHT22;18248;51.522;7.020;2024-01-16T15:51:25;3.50;99.90
31639;DHT22;18248;51.522;7.020;2024-01-16T15:54:24;3.40;99.90
31639;DHT22;18248;51.522;7.020;2024-01-16T15:57:23;3.40;99.90
31639;DHT22;18248;51.522;7.020;2024-01-16T16:00:21;3.40;99.90
31639;DHT22;18248;51.522;7.020;2024-01-16T16:03:21;3.30;99.90
31639;DHT22;18248;51.522;7.020;2024-01-16T16:06:19;3.30;99.90
31639;DHT22;18248;51.522;7.020;2024-01-16T16:09:18;3.30;99.90
31639;DHT22;18248;51.522;7.020;2024-01-16T16:12:17;3.20;99.90
31639;DHT22;18248;51.522;7.020;2024-01-16T16:15:15;3.20;99.90
31639;DHT22;18248;51.522;7.020;2024-01-16T16:18:14;3.00;99.90
31639;DHT22;18248;51.522;7.020;2024-01-16T16:21:12;3.00;99.90
31639;DHT22;18248;51.522;7.020;2024-01-16T16:24:12;2.90;99.90
31639;DHT22;18248;51.522;7.020;2024-01-16T16:27:24;2.90;99.90
31639;DHT22;18248;51.522;7.020;2024-01-16T16:30:23;2.80;99.90
31639;DHT22;18248;51.522;7.020;2024-01-16T16:33:22;2.70;99.90
31639;DHT22;18248;51.522;7.020;2024-01-16T16:36:20;2.60;99.90
31639;DHT22;18248;51.522;7.020;2024-01-16T16:39:19;2.60;99.90
31639;DHT22;18248;51.522;7.020;2024-01-16T16:42:20;2.50;99.90
31639;DHT22;18248;51.522;7.020;2024-01-16T16:45:19;2.40;99.90
31639;DHT22;18248;51.522;7.020;2024-01-16T16:48:18;2.40;99.90
31639;DHT22;18248;51.522;7.020;2024-01-16T16:51:18;2.30;99.90
31639;DHT22;18248;51.522;7.020;2024-01-16T16:54:16;2.30;99.90
31639;DHT22;18248;51.522;7.020;2024-01-16T16:57:15;2.20;99.90
31639;DHT22;18248;51.522;7.020;2024-01-16T17:00:14;2.20;99.90
31639;DHT22;18248;51.522;7.020;2024-01-16T17:03:13;2.10;99.90
31639;DHT22;18248;51.522;7.020;2024-01-16T17:06:12;2.10;99.90
31639;DHT22;18248;51.522;7.020;2024-01-16T17:09:11;2.00;99.90
31639;DHT22;18248;51.522;7.020;2024-01-16T17:12:10;2.00;99.90
31639;DHT22;18248;51.522;7.020;2024-01-16T17:15:08;2.00;99.90
31639;DHT22;18248;51.522;7.020;2024-01-16T17:18:08;1.90;99.90
31639;DHT22;18248;51.522;7.020;2024-01-16T17:21:08;1.80;99.90
31639;DHT22;18248;51.522;7.020;2024-01-16T17:24:07;1.80;99.90
31639;DHT22;18248;51.522;7.020;2024-01-16T17:27:05;1.80;99.90
31639;DHT22;18248;51.522;7.020;2024-01-16T17:30:04;1.70;99.90
31639;DHT22;18248;51.522;7.020;2024-01-16T17:33:05;1.70;99.90
31639;DHT22;18248;51.522;7.020;2024-01-16T17:36:04;1.70;99.90
31639;DHT22;18248;51.522;7.020;2024-01-16T17:39:09;1.70;99.90
31639;DHT22;18248;51.522;7.020;2024-01-16T17:42:07;1.70;99.90
31639;DHT22;18248;51.522;7.020;2024-01-16T17:45:08;1.60;99.90
31639;DHT22;18248;51.522;7.020;2024-01-16T17:48:07;1.60;99.90
31639;DHT22;18248;51.522;7.020;2024-01-16T17:51:07;1.60;99.90
31639;DHT22;18248;51.522;7.020;2024-01-16T17:54:06;1.50;99.90
31639;DHT22;18248;51.522;7.020;2024-01-16T17:57:05;1.50;99.90
31639;DHT22;18248;51.522;7.020;2024-01-16T18:00:05;1.50;99.90
31639;DHT22;18248;51.522;7.020;2024-01-16T18:03:04;1.40;99.90
31639;DHT22;18248;51.522;7.020;2024-01-16T18:06:03;1.50;99.90
31639;DHT22;18248;51.522;7.020;2024-01-16T18:09:04;1.40;99.90
31639;DHT22;18248;51.522;7.020;2024-01-16T18:12:08;1.40;99.90
31639;DHT22;18248;51.522;7.020;2024-01-16T18:15:10;1.50;99.90
31639;DHT22;18248;51.522;7.020;2024-01-16T18:18:11;1.30;99.90
31639;DHT22;18248;51.522;7.020;2024-01-16T18:21:11;1.30;99.90
31639;DHT22;18248;51.522;7.020;2024-01-16T18:24:10;1.30;99.90
31639;DHT22;18248;51.522;7.020;2024-01-16T18:27:10;1.30;99.90
31639;DHT22;18248;51.522;7.020;2024-01-16T18:30:09;1.30;99.90
31639;DHT22;18248;51.522;7.020;2024-01-16T18:33:10;1.20;99.90
31639;DHT22;18248;51.522;7.020;2024-01-16T18:36:08;1.20;99.90
31639;DHT22;18248;51.522;7.020;2024-01-16T18:39:08;1.20;99.90
31639;DHT22;18248;51.522;7.020;2024-01-16T18:42:10;1.20;99.90
31639;DHT22;18248;51.522;7.020;2024-01-16T18:45:09;1.20;99.90
31639;DHT22;18248;51.522;7.020;2024-01-16T18:48:09;1.10;99.90
31639;DHT22;18248;51.522;7.020;2024-01-16T18:51:07;1.10;99.90
31639;DHT22;18248;51.522;7.020;2024-01-16T18:54:07;1.10;99.90
31639;DHT22;18248;51.522;7.020;2024-01-16T18:57:05;1.10;99.90
31639;DHT22;18248;51.522;7.020;2024-01-16T19:00:09;1.10;99.90
31639;DHT22;18248;51.522;7.020;2024-01-16T19:03:15;1.10;99.90
31639;DHT22;18248;51.522;7.020;2024-01-16T19:06:15;1.10;99.90
31639;DHT22;18248;51.522;7.020;2024-01-16T19:09:17;1.10;99.90
31639;DHT22;18248;51.522;7.020;2024-01-16T19:12:16;1.00;99.90
31639;DHT22;18248;51.522;7.020;2024-01-16T19:15:16;1.00;99.90
31639;DHT22;18248;51.522;7.020;2024-01-16T19:18:15;1.00;99.90
31639;DHT22;18248;51.522;7.020;2024-01-16T19:21:13;1.00;99.90